TimeCST,TemperatureF,Dew PointF,Humidity,Sea Level PressureIn,VisibilityMPH,Wind Direction,Wind SpeedMPH,Gust SpeedMPH,PrecipitationIn,Events,Conditions,WindDirDegrees,DateUTC
12:53 AM,46.0,35.1,66,30.21,10.0,NW,8.1,-,N/A,,Clear,310,2013-03-06 06:53:00
1:53 AM,43.0,30.9,62,30.22,10.0,NW,4.6,-,N/A,,Clear,320,2013-03-06 07:53:00
2:53 AM,42.1,28.0,58,30.21,10.0,NW,5.8,-,N/A,,Clear,320,2013-03-06 08:53:00
3:53 AM,41.0,26.1,55,30.22,10.0,West,3.5,-,N/A,,Clear,280,2013-03-06 09:53:00
4:53 AM,39.0,27.0,62,30.25,10.0,NW,3.5,-,N/A,,Clear,320,2013-03-06 10:53:00
5:53 AM,37.9,26.1,62,30.27,10.0,NW,3.5,-,N/A,,Clear,320,2013-03-06 11:53:00
6:53 AM,37.9,26.1,62,30.29,10.0,NW,4.6,-,N/A,,Clear,310,2013-03-06 12:53:00
7:53 AM,43.0,27.0,53,30.32,10.0,NNW,8.1,-,N/A,,Clear,330,2013-03-06 13:53:00
8:53 AM,46.0,26.1,46,30.33,10.0,North,13.8,-,N/A,,Clear,360,2013-03-06 14:53:00
9:53 AM,48.9,25.0,39,30.32,10.0,NNW,10.4,-,N/A,,Clear,340,2013-03-06 15:53:00
10:53 AM,51.1,25.0,36,30.31,10.0,North,11.5,19.6,N/A,,Clear,10,2013-03-06 16:53:00
11:53 AM,54.0,25.0,33,30.30,10.0,NNW,10.4,25.3,N/A,,Clear,340,2013-03-06 17:53:00
12:53 PM,57.0,26.1,30,30.26,10.0,NW,15.0,20.7,N/A,,Clear,310,2013-03-06 18:53:00
1:53 PM,57.9,25.0,28,30.24,10.0,North,9.2,23.0,N/A,,Clear,350,2013-03-06 19:53:00
2:53 PM,59.0,25.0,27,30.22,10.0,North,13.8,20.7,N/A,,Clear,360,2013-03-06 20:53:00
3:53 PM,59.0,25.0,27,30.22,10.0,North,10.4,18.4,N/A,,Clear,350,2013-03-06 21:53:00
4:53 PM,57.0,27.0,32,30.23,10.0,North,6.9,-,N/A,,Clear,360,2013-03-06 22:53:00
5:53 PM,53.1,27.0,37,30.25,10.0,NNW,6.9,-,N/A,,Clear,330,2013-03-06 23:53:00
6:53 PM,50.0,28.0,43,30.26,10.0,NNW,4.6,-,N/A,,Clear,330,2013-03-07 00:53:00
7:53 PM,46.9,28.9,50,30.28,10.0,NNW,5.8,-,N/A,,Clear,330,2013-03-07 01:53:00
8:53 PM,46.9,28.9,50,30.30,10.0,NNW,5.8,-,N/A,,Clear,330,2013-03-07 02:53:00
9:53 PM,44.1,28.9,55,30.31,10.0,NNW,5.8,-,N/A,,Clear,330,2013-03-07 03:53:00
10:53 PM,43.0,28.9,58,30.30,10.0,North,4.6,-,N/A,,Clear,360,2013-03-07 04:53:00
11:53 PM,41.0,28.9,62,30.30,10.0,NNW,4.6,-,N/A,,Clear,330,2013-03-07 05:53:00